Time;durP1;ratioP1;P1;durP2;ratioP2;P2;SDS_P1;SDS_P2;PMS_P1;PMS_P2;Temp;Humidity;BMP_temperature;BMP_pressure;BME280_temperature;BME280_humidity;BME280_pressure;Samples;Min_cycle;Max_cycle;Signal;HPM_P1;HPM_P2
2023/05/08 00:00:41;;;;;;;8.77;7.88;;;;;;;;;;4958679;28;20062;-70
2023/05/08 00:03:06;;;;;;;8.45;7.47;;;;;;;;;;4957492;28;20061;-70
2023/05/08 00:05:31;;;;;;;10.48;8.25;;;;;;;;;;4958927;28;20039;-69
2023/05/08 00:08:00;;;;;;;8.70;7.72;;;;;;;;;;4957625;28;20030;-73
2023/05/08 00:10:28;;;;;;;11.50;8.07;;;;;;;;;;4957079;28;20181;-71
2023/05/08 00:12:54;;;;;;;8.43;7.55;;;;;;;;;;4958445;28;20035;-72
2023/05/08 00:15:20;;;;;;;7.40;6.70;;;;;;;;;;4955287;28;20035;-71
2023/05/08 00:17:45;;;;;;;7.63;6.85;;;;;;;;;;4945648;28;20054;-71
2023/05/08 00:20:11;;;;;;;7.72;6.93;;;;;;;;;;4959027;28;20030;-70
2023/05/08 00:22:36;;;;;;;8.85;7.82;;;;;;;;;;4949087;28;20027;-70
2023/05/08 00:25:04;;;;;;;9.93;8.57;;;;;;;;;;4951483;28;20097;-71
2023/05/08 00:27:29;;;;;;;9.43;8.55;;;;;;;;;;4956727;28;20026;-69
2023/05/08 00:29:55;;;;;;;10.25;9.25;;;;;;;;;;4949606;28;20054;-69
2023/05/08 00:32:20;;;;;;;10.65;8.65;;;;;;;;;;4957811;28;20133;-70
2023/05/08 00:34:46;;;;;;;9.85;7.50;;;;;;;;;;4954635;28;20034;-74
2023/05/08 00:37:11;;;;;;;10.75;8.65;;;;;;;;;;4950877;28;20058;-70
2023/05/08 00:39:36;;;;;;;8.88;7.43;;;;;;;;;;4957662;28;20466;-73
2023/05/08 00:42:02;;;;;;;7.82;6.40;;;;;;;;;;4956423;28;20047;-69
2023/05/08 00:44:27;;;;;;;7.32;5.93;;;;;;;;;;4954663;28;20781;-69
2023/05/08 00:46:53;;;;;;;7.13;6.43;;;;;;;;;;4954145;28;20089;-71
2023/05/08 00:49:18;;;;;;;10.30;6.55;;;;;;;;;;4957432;28;20046;-70
2023/05/08 00:51:48;;;;;;;8.52;6.95;;;;;;;;;;4957783;28;20038;-70
2023/05/08 00:54:13;;;;;;;8.68;7.00;;;;;;;;;;4956800;28;20027;-70
2023/05/08 00:56:39;;;;;;;8.75;6.93;;;;;;;;;;4954805;28;21085;-71
2023/05/08 00:59:07;;;;;;;7.63;6.90;;;;;;;;;;4957844;28;20027;-70
2023/05/08 01:01:34;;;;;;;11.85;6.45;;;;;;;;;;4956741;28;20764;-73
2023/05/08 01:03:59;;;;;;;6.97;6.10;;;;;;;;;;4959687;28;20090;-70
2023/05/08 01:06:25;;;;;;;7.15;6.53;;;;;;;;;;4957644;28;20437;-70
2023/05/08 01:08:50;;;;;;;8.23;6.47;;;;;;;;;;4955960;28;20027;-69
2023/05/08 01:11:35;;;;;;;10.38;8.52;;;;;;;;;;4957902;28;20518;-72
2023/05/08 01:14:06;;;;;;;9.60;8.52;;;;;;;;;;4953302;28;20038;-72
2023/05/08 01:16:38;;;;;;;10.38;8.25;;;;;;;;;;4946586;28;20037;-74
2023/05/08 01:19:12;;;;;;;9.60;7.97;;;;;;;;;;4957189;28;20042;-70
2023/05/08 01:22:10;;;;;;;9.57;8.68;;;;;;;;;;4955118;28;20073;-71
2023/05/08 01:25:05;;;;;;;8.75;7.60;;;;;;;;;;4919745;28;20093;-68
2023/05/08 01:27:30;;;;;;;11.65;8.88;;;;;;;;;;4905482;29;20107;-72
2023/05/08 01:30:02;;;;;;;9.18;8.27;;;;;;;;;;4902727;29;20713;-73
2023/05/08 01:32:34;;;;;;;9.00;8.18;;;;;;;;;;4894138;29;20040;-71
2023/05/08 01:35:09;;;;;;;8.23;7.32;;;;;;;;;;4902253;29;20040;-70
2023/05/08 01:37:36;;;;;;;8.90;7.90;;;;;;;;;;4893619;29;20055;-69
2023/05/08 01:40:09;;;;;;;9.38;8.48;;;;;;;;;;4905301;29;20024;-69
2023/05/08 01:42:44;;;;;;;9.30;8.43;;;;;;;;;;4903437;29;20052;-74
2023/05/08 01:45:24;;;;;;;10.15;9.13;;;;;;;;;;4903440;29;20364;-70
2023/05/08 01:47:59;;;;;;;11.00;9.90;;;;;;;;;;4903096;29;20036;-70
2023/05/08 01:50:29;;;;;;;8.68;7.88;;;;;;;;;;4903820;29;20452;-71
2023/05/08 01:53:01;;;;;;;9.82;7.35;;;;;;;;;;4893088;29;20040;-70
2023/05/08 01:55:30;;;;;;;8.10;7.30;;;;;;;;;;4903889;29;20027;-70
2023/05/08 01:57:56;;;;;;;7.75;7.05;;;;;;;;;;4901768;29;20048;-70
2023/05/08 02:00:23;;;;;;;7.93;7.25;;;;;;;;;;4903130;29;20355;-71
2023/05/08 02:02:49;;;;;;;7.70;7.00;;;;;;;;;;4905229;28;20028;-70
2023/05/08 02:05:15;;;;;;;7.90;7.10;;;;;;;;;;4952701;28;20054;-70
2023/05/08 02:07:42;;;;;;;8.27;7.45;;;;;;;;;;4950567;28;20022;-69
2023/05/08 02:10:08;;;;;;;8.63;7.75;;;;;;;;;;4957231;28;20031;-71
2023/05/08 02:12:35;;;;;;;7.90;6.90;;;;;;;;;;4956892;28;20038;-71
2023/05/08 02:15:02;;;;;;;7.53;6.57;;;;;;;;;;4952366;28;20030;-70
2023/05/08 02:17:27;;;;;;;8.60;7.70;;;;;;;;;;4948386;28;20018;-74
2023/05/08 02:19:55;;;;;;;7.82;7.03;;;;;;;;;;4951994;28;20031;-70
2023/05/08 02:22:22;;;;;;;9.32;7.35;;;;;;;;;;4945600;28;20031;-70
2023/05/08 02:24:52;;;;;;;7.45;6.82;;;;;;;;;;4951601;28;20052;-69
2023/05/08 02:27:17;;;;;;;;;;;;;;;;;;4955109;28;20426;-69
2023/05/08 02:29:42;;;;;;;7.77;7.07;;;;;;;;;;4952180;28;19913;-70
2023/05/08 02:32:08;;;;;;;7.82;6.97;;;;;;;;;;4953239;28;20039;-70
2023/05/08 02:34:33;;;;;;;7.60;6.72;;;;;;;;;;4954859;28;20026;-71
2023/05/08 02:36:59;;;;;;;7.90;6.70;;;;;;;;;;4947920;28;20022;-73
2023/05/08 02:39:27;;;;;;;7.95;6.35;;;;;;;;;;4947082;28;20023;-73
2023/05/08 02:41:53;;;;;;;7.25;6.53;;;;;;;;;;4946334;28;20069;-68
2023/05/08 02:44:18;;;;;;;6.88;6.28;;;;;;;;;;4953452;28;20035;-70
2023/05/08 02:46:44;;;;;;;8.75;5.60;;;;;;;;;;4950426;28;20096;-72
2023/05/08 02:49:22;;;;;;;7.50;5.88;;;;;;;;;;4944267;28;20082;-70
2023/05/08 02:52:06;;;;;;;7.47;6.30;;;;;;;;;;4950275;28;20049;-70
2023/05/08 02:54:34;;;;;;;7.18;6.47;;;;;;;;;;4947863;28;20039;-70
2023/05/08 02:57:19;;;;;;;7.60;6.25;;;;;;;;;;4953443;28;20026;-70
2023/05/08 02:59:50;;;;;;;9.25;7.70;;;;;;;;;;4953793;28;20062;-72
2023/05/08 03:02:17;;;;;;;8.02;7.32;;;;;;;;;;4953601;28;20470;-70
2023/05/08 03:04:50;;;;;;;7.68;6.90;;;;;;;;;;4950517;28;20331;-71
2023/05/08 03:07:18;;;;;;;7.85;7.05;;;;;;;;;;4947774;28;20041;-71
2023/05/08 03:09:46;;;;;;;8.63;7.57;;;;;;;;;;4949916;28;20066;-70
2023/05/08 03:12:14;;;;;;;8.05;6.97;;;;;;;;;;4934605;28;20046;-72
2023/05/08 03:14:42;;;;;;;7.57;6.88;;;;;;;;;;4949139;28;20039;-70
2023/05/08 03:17:09;;;;;;;6.90;6.20;;;;;;;;;;4954157;28;20024;-69
2023/05/08 03:19:36;;;;;;;8.98;8.10;;;;;;;;;;4953253;28;20034;-69
2023/05/08 03:22:02;;;;;;;9.70;8.38;;;;;;;;;;4944036;28;20060;-72
2023/05/08 03:24:28;;;;;;;10.07;8.60;;;;;;;;;;4951746;28;20105;-71
2023/05/08 03:26:55;;;;;;;9.43;8.52;;;;;;;;;;4953488;28;20523;-69
2023/05/08 03:29:20;;;;;;;9.20;8.00;;;;;;;;;;4953471;28;20038;-70
2023/05/08 03:31:46;;;;;;;9.85;7.78;;;;;;;;;;4955267;28;20023;-71
2023/05/08 03:34:11;;;;;;;8.90;8.00;;;;;;;;;;4949462;28;20053;-70
2023/05/08 03:36:37;;;;;;;8.73;7.82;;;;;;;;;;4942982;28;20121;-72
2023/05/08 03:39:02;;;;;;;8.18;7.25;;;;;;;;;;4934808;28;20018;-70
2023/05/08 03:41:28;;;;;;;8.45;7.60;;;;;;;;;;4939584;28;20126;-70
2023/05/08 03:43:55;;;;;;;8.15;7.35;;;;;;;;;;4933838;28;20094;-71
2023/05/08 03:46:20;;;;;;;10.02;6.55;;;;;;;;;;4935706;28;20032;-70
2023/05/08 03:48:48;;;;;;;11.07;6.93;;;;;;;;;;4935623;28;20035;-70
2023/05/08 03:51:14;;;;;;;8.57;6.60;;;;;;;;;;4936534;28;20094;-71
2023/05/08 03:53:40;;;;;;;7.80;7.10;;;;;;;;;;4941239;28;20058;-70
2023/05/08 03:56:05;;;;;;;7.28;6.65;;;;;;;;;;4952789;28;20077;-71
2023/05/08 03:58:33;;;;;;;7.82;7.13;;;;;;;;;;4950718;28;20035;-73
2023/05/08 04:01:01;;;;;;;7.88;7.10;;;;;;;;;;4945237;28;20035;-70
2023/05/08 04:03:33;;;;;;;8.40;7.65;;;;;;;;;;4941798;28;20019;-70
2023/05/08 04:06:16;;;;;;;8.75;7.95;;;;;;;;;;4944425;28;20085;-74
2023/05/08 04:08:47;;;;;;;8.63;7.82;;;;;;;;;;4938202;28;20442;-71
2023/05/08 04:11:29;;;;;;;8.63;7.82;;;;;;;;;;4946853;28;20482;-71
2023/05/08 04:13:57;;;;;;;8.13;7.32;;;;;;;;;;4955569;28;20043;-74
2023/05/08 04:16:25;;;;;;;9.02;8.13;;;;;;;;;;4957250;28;20837;-72
2023/05/08 04:18:58;;;;;;;9.60;8.32;;;;;;;;;;4958464;28;20023;-73
2023/05/08 04:21:25;;;;;;;9.68;8.15;;;;;;;;;;4958347;28;20106;-73
2023/05/08 04:23:51;;;;;;;9.48;8.55;;;;;;;;;;4954941;28;20753;-70
2023/05/08 04:26:17;;;;;;;10.40;8.80;;;;;;;;;;4957545;28;20026;-73
2023/05/08 04:28:45;;;;;;;10.05;8.95;;;;;;;;;;4954914;28;20023;-71
2023/05/08 04:31:12;;;;;;;8.63;7.72;;;;;;;;;;4955981;28;20027;-71
2023/05/08 04:33:38;;;;;;;9.93;8.90;;;;;;;;;;4955520;28;20023;-71
2023/05/08 04:36:03;;;;;;;9.43;8.52;;;;;;;;;;4957105;28;20037;-70
2023/05/08 04:38:29;;;;;;;8.50;7.65;;;;;;;;;;4954481;28;20397;-71
2023/05/08 04:40:55;;;;;;;8.55;7.75;;;;;;;;;;4939947;28;20050;-71
2023/05/08 04:43:20;;;;;;;8.95;8.05;;;;;;;;;;4951742;28;20469;-73
2023/05/08 04:45:46;;;;;;;11.35;8.68;;;;;;;;;;4940142;28;20029;-75
2023/05/08 04:48:11;;;;;;;12.88;11.40;;;;;;;;;;4946521;28;20038;-72
2023/05/08 04:50:36;;;;;;;10.25;8.77;;;;;;;;;;4957160;28;20081;-74
2023/05/08 04:53:02;;;;;;;9.07;8.13;;;;;;;;;;4955302;28;20054;-70
2023/05/08 04:55:27;;;;;;;12.15;10.98;;;;;;;;;;4971548;28;20398;-74
2023/05/08 04:57:53;;;;;;;16.05;13.10;;;;;;;;;;4956802;28;20545;-72
2023/05/08 05:00:18;;;;;;;14.45;10.80;;;;;;;;;;4954261;28;20054;-72
2023/05/08 05:02:43;;;;;;;10.93;8.60;;;;;;;;;;4956889;28;20030;-71
2023/05/08 05:05:10;;;;;;;27.02;19.35;;;;;;;;;;4956922;28;20039;-71
2023/05/08 05:07:35;;;;;;;19.30;16.48;;;;;;;;;;4956927;28;20023;-71
2023/05/08 05:10:00;;;;;;;11.40;10.27;;;;;;;;;;4954619;28;20094;-74
2023/05/08 05:12:26;;;;;;;11.80;9.90;;;;;;;;;;4954389;28;20401;-70
2023/05/08 05:14:51;;;;;;;11.27;10.13;;;;;;;;;;4956919;28;20045;-71
2023/05/08 05:17:16;;;;;;;14.60;12.52;;;;;;;;;;4957115;28;20085;-73
2023/05/08 05:19:42;;;;;;;11.70;10.45;;;;;;;;;;4953754;28;20085;-70
2023/05/08 05:22:07;;;;;;;9.48;8.50;;;;;;;;;;4955641;28;20046;-71
2023/05/08 05:24:34;;;;;;;8.88;8.00;;;;;;;;;;4954220;28;20027;-70
2023/05/08 05:27:01;;;;;;;10.68;8.65;;;;;;;;;;4956278;28;20037;-71
2023/05/08 05:29:26;;;;;;;10.20;8.48;;;;;;;;;;4956423;28;20058;-71
2023/05/08 05:31:51;;;;;;;10.93;7.18;;;;;;;;;;4957113;28;20850;-74
2023/05/08 05:34:17;;;;;;;11.57;8.27;;;;;;;;;;4952609;28;20059;-72
2023/05/08 05:36:43;;;;;;;9.98;9.05;;;;;;;;;;4953473;28;20035;-71
2023/05/08 05:39:09;;;;;;;11.20;9.10;;;;;;;;;;4957337;28;20034;-70
2023/05/08 05:41:35;;;;;;;11.30;10.13;;;;;;;;;;4956637;28;20047;-71
2023/05/08 05:44:00;;;;;;;10.85;9.85;;;;;;;;;;4955356;28;20406;-72
2023/05/08 05:46:31;;;;;;;11.48;10.32;;;;;;;;;;4955648;28;20031;-71
2023/05/08 05:48:56;;;;;;;15.25;9.80;;;;;;;;;;4955598;28;20045;-71
2023/05/08 05:51:21;;;;;;;30.60;26.88;;;;;;;;;;4955605;28;20038;-72
2023/05/08 05:53:47;;;;;;;17.98;16.15;;;;;;;;;;4953628;28;20039;-71
2023/05/08 05:56:12;;;;;;;17.42;14.32;;;;;;;;;;4956462;28;20034;-71
2023/05/08 05:58:39;;;;;;;18.48;16.63;;;;;;;;;;4956581;28;20101;-70
2023/05/08 06:01:05;;;;;;;12.20;9.88;;;;;;;;;;4951674;28;20027;-70
2023/05/08 06:03:30;;;;;;;8.10;7.13;;;;;;;;;;4956082;28;20031;-70
2023/05/08 06:05:55;;;;;;;8.20;7.40;;;;;;;;;;4957475;28;20442;-73
2023/05/08 06:08:21;;;;;;;8.50;7.70;;;;;;;;;;4955482;28;20388;-71
2023/05/08 06:10:47;;;;;;;8.63;7.85;;;;;;;;;;4950542;28;20031;-74
2023/05/08 06:13:14;;;;;;;9.25;8.45;;;;;;;;;;4934552;28;20441;-71
2023/05/08 06:15:39;;;;;;;11.57;9.52;;;;;;;;;;4945815;28;20030;-71
2023/05/08 06:18:04;;;;;;;9.73;8.80;;;;;;;;;;4946304;28;20031;-74
2023/05/08 06:20:30;;;;;;;8.52;7.60;;;;;;;;;;4946248;28;20605;-71
2023/05/08 06:22:55;;;;;;;7.95;7.15;;;;;;;;;;4953093;28;20971;-72
2023/05/08 06:25:21;;;;;;;12.25;9.52;;;;;;;;;;4954639;28;20149;-71
2023/05/08 06:27:46;;;;;;;21.45;19.25;;;;;;;;;;4956674;28;20114;-70
2023/05/08 06:30:11;;;;;;;22.02;19.83;;;;;;;;;;4954633;28;20073;-71
2023/05/08 06:32:37;;;;;;;25.67;22.45;;;;;;;;;;4942082;28;20062;-71
2023/05/08 06:35:02;;;;;;;28.40;20.42;;;;;;;;;;4930959;28;20434;-72
2023/05/08 06:37:28;;;;;;;19.15;16.45;;;;;;;;;;4942702;28;20359;-70
2023/05/08 06:39:53;;;;;;;34.55;29.83;;;;;;;;;;4956910;28;20023;-70
2023/05/08 06:42:19;;;;;;;37.15;31.88;;;;;;;;;;4950782;28;20706;-72
2023/05/08 06:44:44;;;;;;;98.30;74.45;;;;;;;;;;4945551;28;20390;-70
2023/05/08 06:47:10;;;;;;;29.65;23.63;;;;;;;;;;4941812;28;20431;-72
2023/05/08 06:49:35;;;;;;;176.82;106.00;;;;;;;;;;4945449;28;20338;-72
2023/05/08 06:52:01;;;;;;;77.60;48.78;;;;;;;;;;4945558;28;20852;-71
2023/05/08 06:54:26;;;;;;;21.50;15.55;;;;;;;;;;4941825;28;20045;-73
2023/05/08 06:56:53;;;;;;;14.60;10.48;;;;;;;;;;4944393;28;20114;-71
2023/05/08 06:59:18;;;;;;;75.65;63.53;;;;;;;;;;4939384;28;20439;-72
2023/05/08 07:01:43;;;;;;;13.55;12.10;;;;;;;;;;4946307;28;20184;-74
2023/05/08 07:04:09;;;;;;;17.77;9.32;;;;;;;;;;4940758;28;20070;-72
2023/05/08 07:06:34;;;;;;;12.65;8.85;;;;;;;;;;4939870;28;20031;-69
2023/05/08 07:08:59;;;;;;;14.32;8.18;;;;;;;;;;4945930;28;20339;-72
2023/05/08 07:11:25;;;;;;;7.00;6.28;;;;;;;;;;4943781;28;20037;-70
2023/05/08 07:13:50;;;;;;;15.68;7.03;;;;;;;;;;4944725;28;20058;-70
2023/05/08 07:16:15;;;;;;;10.70;8.02;;;;;;;;;;4942189;28;20062;-71
2023/05/08 07:18:41;;;;;;;11.13;7.60;;;;;;;;;;4944333;28;20069;-71
2023/05/08 07:21:07;;;;;;;11.40;7.50;;;;;;;;;;4942403;28;20066;-70
2023/05/08 07:23:32;;;;;;;7.78;6.32;;;;;;;;;;4944055;28;20027;-72
2023/05/08 07:25:58;;;;;;;11.00;9.90;;;;;;;;;;4945531;28;20668;-70
2023/05/08 07:28:23;;;;;;;12.77;10.73;;;;;;;;;;4944253;28;20035;-73
2023/05/08 07:30:49;;;;;;;12.80;11.43;;;;;;;;;;4945380;28;20046;-70
2023/05/08 07:33:14;;;;;;;15.98;13.50;;;;;;;;;;4938804;28;20448;-70
2023/05/08 07:35:41;;;;;;;10.07;9.07;;;;;;;;;;4945190;28;20127;-72
2023/05/08 07:38:07;;;;;;;8.40;7.30;;;;;;;;;;4946110;28;20027;-71
2023/05/08 07:40:33;;;;;;;7.65;6.82;;;;;;;;;;4945619;28;20050;-72
2023/05/08 07:42:58;;;;;;;15.90;14.30;;;;;;;;;;4947021;28;20145;-70
2023/05/08 07:45:23;;;;;;;8.90;8.10;;;;;;;;;;4949300;28;20531;-73
2023/05/08 07:47:56;;;;;;;8.52;6.32;;;;;;;;;;4950144;28;20018;-71
2023/05/08 07:50:22;;;;;;;11.15;7.95;;;;;;;;;;4946146;28;20095;-72
2023/05/08 07:52:48;;;;;;;7.55;6.65;;;;;;;;;;4946506;28;20088;-72
2023/05/08 07:55:13;;;;;;;9.25;8.00;;;;;;;;;;4948890;28;20035;-75
2023/05/08 07:57:39;;;;;;;10.02;7.10;;;;;;;;;;4946727;28;20081;-73
2023/05/08 08:00:06;;;;;;;11.27;8.93;;;;;;;;;;4947743;28;20031;-71
2023/05/08 08:02:31;;;;;;;14.20;5.75;;;;;;;;;;4941973;28;20089;-72
2023/05/08 08:04:56;;;;;;;6.03;5.53;;;;;;;;;;4945123;28;20470;-73
2023/05/08 08:07:22;;;;;;;6.35;5.75;;;;;;;;;;4945426;28;20438;-72
2023/05/08 08:09:47;;;;;;;8.45;5.30;;;;;;;;;;4945611;28;20454;-73
2023/05/08 08:12:13;;;;;;;6.32;4.43;;;;;;;;;;4951753;28;20030;-72
2023/05/08 08:14:38;;;;;;;5.75;4.90;;;;;;;;;;4947732;28;20030;-74
2023/05/08 08:17:04;;;;;;;6.65;4.45;;;;;;;;;;4944904;28;20096;-72
2023/05/08 08:19:29;;;;;;;4.95;4.45;;;;;;;;;;4945557;28;20454;-75
2023/05/08 08:21:55;;;;;;;5.35;4.88;;;;;;;;;;4945809;28;20129;-74
2023/05/08 08:24:20;;;;;;;5.55;5.05;;;;;;;;;;4943408;28;20034;-72
2023/05/08 08:26:46;;;;;;;4.68;4.28;;;;;;;;;;4941266;28;20041;-70
2023/05/08 08:29:11;;;;;;;9.57;4.90;;;;;;;;;;4945271;28;20442;-71
2023/05/08 08:31:37;;;;;;;7.82;5.53;;;;;;;;;;4948260;28;20346;-72
2023/05/08 08:34:02;;;;;;;4.57;4.18;;;;;;;;;;4956847;28;20053;-74
2023/05/08 08:36:28;;;;;;;5.30;4.13;;;;;;;;;;4955769;28;20122;-72
2023/05/08 08:38:53;;;;;;;5.88;4.22;;;;;;;;;;4957058;28;20049;-74
2023/05/08 08:41:20;;;;;;;5.05;4.55;;;;;;;;;;4958513;28;20055;-73
2023/05/08 08:43:45;;;;;;;5.18;4.68;;;;;;;;;;4957208;28;20031;-72
2023/05/08 08:46:13;;;;;;;6.22;5.55;;;;;;;;;;4953866;28;20556;-71
2023/05/08 08:48:42;;;;;;;6.53;5.20;;;;;;;;;;4956107;28;20340;-73
2023/05/08 08:51:10;;;;;;;5.43;4.90;;;;;;;;;;4956601;28;20035;-73
2023/05/08 08:53:41;;;;;;;5.47;4.90;;;;;;;;;;4954710;28;20033;-72
2023/05/08 08:56:07;;;;;;;5.40;4.80;;;;;;;;;;4954585;28;20654;-72
2023/05/08 08:58:36;;;;;;;7.25;4.80;;;;;;;;;;4957380;28;20423;-72
2023/05/08 09:01:02;;;;;;;;;;;;;;;;;;4956386;28;20122;-71
2023/05/08 09:03:29;;;;;;;6.43;5.18;;;;;;;;;;4954588;28;20005;-73
2023/05/08 09:05:58;;;;;;;5.43;4.95;;;;;;;;;;4955627;28;20039;-72
2023/05/08 09:08:24;;;;;;;6.25;5.22;;;;;;;;;;4956436;28;20031;-72
2023/05/08 09:10:51;;;;;;;7.25;5.20;;;;;;;;;;4957533;28;20141;-72
2023/05/08 09:13:18;;;;;;;5.45;4.95;;;;;;;;;;4954645;28;20049;-74
2023/05/08 09:15:43;;;;;;;4.90;4.40;;;;;;;;;;4957614;28;20026;-72
2023/05/08 09:18:08;;;;;;;7.05;5.03;;;;;;;;;;4955529;28;20030;-71
2023/05/08 09:20:34;;;;;;;8.68;5.15;;;;;;;;;;4957302;28;20058;-74
2023/05/08 09:23:01;;;;;;;5.82;4.68;;;;;;;;;;4955061;28;20027;-71
2023/05/08 09:25:39;;;;;;;6.32;4.43;;;;;;;;;;4955739;28;20035;-72
2023/05/08 09:28:24;;;;;;;4.85;4.38;;;;;;;;;;4957658;28;20410;-72
2023/05/08 09:30:52;;;;;;;6.00;5.10;;;;;;;;;;4954474;28;20343;-70
2023/05/08 09:33:18;;;;;;;6.55;5.70;;;;;;;;;;4956408;28;20035;-73
2023/05/08 09:35:43;;;;;;;8.60;5.90;;;;;;;;;;4949954;28;20034;-72
2023/05/08 09:38:29;;;;;;;7.63;6.93;;;;;;;;;;4949191;28;20066;-72
2023/05/08 09:41:14;;;;;;;8.50;7.45;;;;;;;;;;4955326;28;20054;-71
2023/05/08 09:43:40;;;;;;;10.10;9.10;;;;;;;;;;4957851;28;20027;-72
2023/05/08 09:46:25;;;;;;;8.60;7.80;;;;;;;;;;4953039;28;20378;-71
2023/05/08 09:48:51;;;;;;;8.35;7.47;;;;;;;;;;4954023;28;20037;-71
2023/05/08 09:51:17;;;;;;;9.20;7.53;;;;;;;;;;4954400;28;20046;-73
2023/05/08 09:53:42;;;;;;;9.20;7.95;;;;;;;;;;4956713;28;20358;-71
2023/05/08 09:56:08;;;;;;;9.60;8.63;;;;;;;;;;4955569;28;20621;-72
2023/05/08 09:58:40;;;;;;;10.20;9.30;;;;;;;;;;4952827;28;20458;-71
2023/05/08 10:01:06;;;;;;;14.55;8.85;;;;;;;;;;4952189;28;20359;-71
2023/05/08 10:03:50;;;;;;;8.38;7.57;;;;;;;;;;4955466;28;20031;-76
2023/05/08 10:06:15;;;;;;;27.13;22.58;;;;;;;;;;4954960;28;20073;-76
2023/05/08 10:08:41;;;;;;;12.48;11.27;;;;;;;;;;4941332;28;20067;-71
2023/05/08 10:11:14;;;;;;;9.90;7.40;;;;;;;;;;4968605;28;20118;-73
2023/05/08 10:13:40;;;;;;;7.00;6.40;;;;;;;;;;4956073;28;20019;-71
2023/05/08 10:16:06;;;;;;;6.85;5.75;;;;;;;;;;4947266;28;20113;-75
2023/05/08 10:18:34;;;;;;;6.28;5.50;;;;;;;;;;4943680;28;20030;-72
2023/05/08 10:21:02;;;;;;;7.82;6.00;;;;;;;;;;4955935;28;20031;-72
2023/05/08 10:23:27;;;;;;;6.88;5.47;;;;;;;;;;4953789;28;20117;-73
2023/05/08 10:25:55;;;;;;;6.15;5.53;;;;;;;;;;4955898;28;20121;-72
2023/05/08 10:28:20;;;;;;;5.95;5.45;;;;;;;;;;4956782;28;20035;-72
2023/05/08 10:30:49;;;;;;;7.65;5.30;;;;;;;;;;4954295;28;20014;-73
2023/05/08 10:33:18;;;;;;;9.57;5.90;;;;;;;;;;4957067;28;20455;-71
2023/05/08 10:35:44;;;;;;;8.50;6.70;;;;;;;;;;4946468;28;20018;-71
2023/05/08 10:38:10;;;;;;;6.68;5.95;;;;;;;;;;4950988;28;20340;-75
2023/05/08 10:40:36;;;;;;;14.20;8.93;;;;;;;;;;4955425;28;20043;-71
2023/05/08 10:43:02;;;;;;;10.05;8.60;;;;;;;;;;4952276;28;20406;-71
2023/05/08 10:45:31;;;;;;;10.27;7.47;;;;;;;;;;4953087;28;21178;-72
2023/05/08 10:48:10;;;;;;;11.90;6.35;;;;;;;;;;4954420;28;20137;-74
2023/05/08 10:50:48;;;;;;;6.30;5.32;;;;;;;;;;4952375;28;20039;-73
2023/05/08 10:53:14;;;;;;;6.30;5.63;;;;;;;;;;4955934;28;20027;-73
2023/05/08 10:55:40;;;;;;;7.20;6.30;;;;;;;;;;4953055;28;20038;-73
2023/05/08 10:58:10;;;;;;;8.77;6.45;;;;;;;;;;4954886;28;20370;-74
2023/05/08 11:00:50;;;;;;;9.07;6.93;;;;;;;;;;4955305;28;20034;-75
2023/05/08 11:03:17;;;;;;;14.02;8.20;;;;;;;;;;4951735;28;20420;-73
2023/05/08 11:05:46;;;;;;;11.85;8.15;;;;;;;;;;4954293;28;20038;-73
2023/05/08 11:08:16;;;;;;;26.27;17.25;;;;;;;;;;4955489;28;20479;-76
2023/05/08 11:10:42;;;;;;;13.65;10.80;;;;;;;;;;4954845;28;20023;-76
2023/05/08 11:13:08;;;;;;;11.90;9.00;;;;;;;;;;4969635;28;20039;-75
2023/05/08 11:15:37;;;;;;;14.80;11.57;;;;;;;;;;4955139;28;20350;-74
2023/05/08 11:18:03;;;;;;;11.93;10.07;;;;;;;;;;4954874;28;20474;-74
2023/05/08 11:20:41;;;;;;;20.20;14.95;;;;;;;;;;4952294;28;20045;-75
2023/05/08 11:23:22;;;;;;;14.03;11.50;;;;;;;;;;4956182;28;20042;-73
2023/05/08 11:25:57;;;;;;;19.15;15.60;;;;;;;;;;4954355;28;20023;-75
2023/05/08 11:28:22;;;;;;;35.00;26.10;;;;;;;;;;4967481;28;20165;-73
2023/05/08 11:30:52;;;;;;;17.00;13.88;;;;;;;;;;4954115;28;20031;-73
2023/05/08 11:33:17;;;;;;;13.90;12.40;;;;;;;;;;4953332;28;20034;-73
2023/05/08 11:35:44;;;;;;;15.60;12.07;;;;;;;;;;4952089;28;20042;-72
2023/05/08 11:38:26;;;;;;;16.05;12.40;;;;;;;;;;4952367;28;20411;-74
2023/05/08 11:40:54;;;;;;;13.00;11.70;;;;;;;;;;4957549;28;20065;-73
2023/05/08 11:43:23;;;;;;;11.60;10.20;;;;;;;;;;4949917;28;20043;-72
2023/05/08 11:45:51;;;;;;;14.82;10.48;;;;;;;;;;4951751;28;20175;-76
2023/05/08 11:48:17;;;;;;;9.55;8.30;;;;;;;;;;4953762;28;20074;-72
2023/05/08 11:50:43;;;;;;;12.73;9.18;;;;;;;;;;4954267;28;20031;-73
2023/05/08 11:53:08;;;;;;;9.68;8.68;;;;;;;;;;4955691;28;20410;-71
2023/05/08 11:55:35;;;;;;;10.35;8.65;;;;;;;;;;4953319;28;20034;-71
2023/05/08 11:58:00;;;;;;;10.32;9.32;;;;;;;;;;4953777;28;20178;-70
2023/05/08 12:00:25;;;;;;;10.00;8.85;;;;;;;;;;4956049;28;20113;-72
2023/05/08 12:02:51;;;;;;;10.02;8.88;;;;;;;;;;4953091;28;20070;-71
2023/05/08 12:05:25;;;;;;;10.63;9.18;;;;;;;;;;4953424;28;20045;-71
2023/05/08 12:07:50;;;;;;;10.07;9.05;;;;;;;;;;4951933;28;20033;-72
2023/05/08 12:10:16;;;;;;;9.48;8.57;;;;;;;;;;4953809;28;21351;-72
2023/05/08 12:12:42;;;;;;;8.55;7.72;;;;;;;;;;4956820;28;20454;-72
2023/05/08 12:15:09;;;;;;;8.45;7.55;;;;;;;;;;4954966;28;20119;-72
2023/05/08 12:17:34;;;;;;;10.07;8.15;;;;;;;;;;4954478;28;20027;-75
2023/05/08 12:20:09;;;;;;;9.23;8.30;;;;;;;;;;4953374;28;20088;-72
2023/05/08 12:22:35;;;;;;;10.07;8.88;;;;;;;;;;4955441;28;20085;-72
2023/05/08 12:25:02;;;;;;;9.75;8.82;;;;;;;;;;4957051;28;20023;-75
2023/05/08 12:27:28;;;;;;;9.85;8.85;;;;;;;;;;4950029;28;20026;-75
2023/05/08 12:29:53;;;;;;;9.80;8.48;;;;;;;;;;4955075;28;20358;-72
2023/05/08 12:32:18;;;;;;;25.67;19.77;;;;;;;;;;4955324;28;20026;-71
2023/05/08 12:34:44;;;;;;;17.95;14.80;;;;;;;;;;4957532;28;20502;-71
2023/05/08 12:37:09;;;;;;;13.75;11.82;;;;;;;;;;4957557;28;20449;-71
2023/05/08 12:39:38;;;;;;;11.75;9.90;;;;;;;;;;4958180;28;20035;-71
2023/05/08 12:42:03;;;;;;;11.02;9.05;;;;;;;;;;4958424;28;20502;-71
2023/05/08 12:44:29;;;;;;;19.88;17.70;;;;;;;;;;4958591;28;20046;-71
2023/05/08 12:46:55;;;;;;;16.33;13.52;;;;;;;;;;4954399;28;20458;-71
2023/05/08 12:49:30;;;;;;;13.18;11.48;;;;;;;;;;4953926;28;20023;-72
2023/05/08 12:52:03;;;;;;;10.63;9.52;;;;;;;;;;4957678;28;20347;-72
2023/05/08 12:54:32;;;;;;;11.80;9.15;;;;;;;;;;4956592;28;20073;-75
2023/05/08 12:56:57;;;;;;;15.43;10.23;;;;;;;;;;4958060;28;20125;-71
2023/05/08 12:59:30;;;;;;;10.88;9.45;;;;;;;;;;4960459;28;20405;-73
2023/05/08 13:01:56;;;;;;;11.98;9.60;;;;;;;;;;4959077;28;20042;-72
2023/05/08 13:04:21;;;;;;;9.80;8.85;;;;;;;;;;4954701;28;20035;-75
2023/05/08 13:06:53;;;;;;;9.23;8.43;;;;;;;;;;4956470;28;20049;-73
2023/05/08 13:09:19;;;;;;;9.93;9.00;;;;;;;;;;4958321;28;20023;-73
2023/05/08 13:11:44;;;;;;;9.60;8.50;;;;;;;;;;4957348;28;20342;-71
2023/05/08 13:14:09;;;;;;;9.38;8.48;;;;;;;;;;4955201;28;20089;-72
2023/05/08 13:16:44;;;;;;;9.93;8.93;;;;;;;;;;4955959;28;20061;-76
2023/05/08 13:19:10;;;;;;;9.73;8.73;;;;;;;;;;4959059;28;20442;-73
2023/05/08 13:21:35;;;;;;;10.35;9.35;;;;;;;;;;4958357;28;20023;-72
2023/05/08 13:24:00;;;;;;;9.80;8.90;;;;;;;;;;4959098;28;20105;-73
2023/05/08 13:26:26;;;;;;;10.68;9.48;;;;;;;;;;4957187;28;20430;-72
2023/05/08 13:28:51;;;;;;;10.15;9.25;;;;;;;;;;4956505;28;20027;-74
2023/05/08 13:31:17;;;;;;;10.18;9.18;;;;;;;;;;4955569;28;20101;-73
2023/05/08 13:33:42;;;;;;;11.32;10.23;;;;;;;;;;4956967;28;20411;-75
2023/05/08 13:36:07;;;;;;;13.20;11.68;;;;;;;;;;4956116;28;20035;-73
2023/05/08 13:38:35;;;;;;;14.02;12.50;;;;;;;;;;4954484;28;20077;-73
2023/05/08 13:41:01;;;;;;;43.30;38.85;;;;;;;;;;4955943;28;20133;-72
2023/05/08 13:43:26;;;;;;;34.78;29.67;;;;;;;;;;4956338;28;20114;-75
2023/05/08 13:45:52;;;;;;;24.40;21.75;;;;;;;;;;4957515;28;20343;-73
2023/05/08 13:48:18;;;;;;;22.58;18.73;;;;;;;;;;4958563;28;20030;-72
2023/05/08 13:50:43;;;;;;;30.60;27.52;;;;;;;;;;4948186;28;20057;-72
2023/05/08 13:53:08;;;;;;;18.13;16.33;;;;;;;;;;4953102;28;21261;-74
2023/05/08 13:55:35;;;;;;;12.45;11.25;;;;;;;;;;4949695;28;20045;-76
2023/05/08 13:58:01;;;;;;;120.50;90.97;;;;;;;;;;4948768;28;20089;-75
2023/05/08 14:00:26;;;;;;;132.43;96.75;;;;;;;;;;4938397;28;20394;-76
2023/05/08 14:02:52;;;;;;;89.50;67.65;;;;;;;;;;4935472;28;20042;-75
2023/05/08 14:05:17;;;;;;;40.13;32.95;;;;;;;;;;4939301;28;20047;-75
2023/05/08 14:07:43;;;;;;;41.20;32.20;;;;;;;;;;4952710;28;20073;-73
2023/05/08 14:10:09;;;;;;;30.02;24.90;;;;;;;;;;4956604;28;20026;-73
2023/05/08 14:12:34;;;;;;;37.35;29.80;;;;;;;;;;4954660;28;20093;-73
2023/05/08 14:15:00;;;;;;;18.98;17.05;;;;;;;;;;4955147;28;20057;-73
2023/05/08 14:17:26;;;;;;;15.45;13.88;;;;;;;;;;4956020;28;20055;-74
2023/05/08 14:19:51;;;;;;;15.70;13.95;;;;;;;;;;4955819;28;20406;-76
2023/05/08 14:22:16;;;;;;;94.35;56.30;;;;;;;;;;4954919;28;20428;-73
2023/05/08 14:24:43;;;;;;;30.25;24.23;;;;;;;;;;4949781;28;20030;-73
2023/05/08 14:27:08;;;;;;;15.18;13.52;;;;;;;;;;4962398;28;20091;-74
2023/05/08 14:29:34;;;;;;;10.77;9.75;;;;;;;;;;4955364;28;20035;-73
2023/05/08 14:31:59;;;;;;;11.52;10.52;;;;;;;;;;4956276;28;20439;-73
2023/05/08 14:34:25;;;;;;;13.25;11.35;;;;;;;;;;4952010;28;20406;-74